createdAt,value
2019-02-18T00:00:37.710Z,12.77
2019-02-18T00:03:06.138Z,14.63
2019-02-18T00:05:34.618Z,19.87
2019-02-18T00:08:02.267Z,19.30
2019-02-18T00:10:30.165Z,18.60
2019-02-18T00:12:58.030Z,24.10
2019-02-18T00:15:25.800Z,18.23
2019-02-18T00:17:53.650Z,18.43
2019-02-18T00:20:21.148Z,21.33
2019-02-18T00:22:49.058Z,17.73
2019-02-18T00:25:16.795Z,14.40
2019-02-18T00:27:44.584Z,12.50
2019-02-18T00:30:12.734Z,12.00
2019-02-18T00:32:40.592Z,12.43
2019-02-18T00:35:08.075Z,11.63
2019-02-18T00:37:35.903Z,11.83
2019-02-18T00:40:03.770Z,11.20
2019-02-18T00:42:31.628Z,10.00
2019-02-18T00:44:59.828Z,11.17
2019-02-18T00:47:27.717Z,11.67
2019-02-18T00:49:55.796Z,12.93
2019-02-18T00:52:23.614Z,10.70
2019-02-18T00:54:51.078Z,11.83
2019-02-18T00:57:18.658Z,11.63
2019-02-18T00:59:46.119Z,12.10
2019-02-18T01:02:13.939Z,13.17
2019-02-18T01:04:41.523Z,12.90
2019-02-18T01:07:09.464Z,13.23
2019-02-18T01:09:37.592Z,15.90
2019-02-18T01:12:05.104Z,13.77
2019-02-18T01:14:32.946Z,14.70
2019-02-18T01:17:00.815Z,14.67
2019-02-18T01:19:28.654Z,12.87
2019-02-18T01:21:56.218Z,14.90
2019-02-18T01:24:23.975Z,12.73
2019-02-18T01:26:51.619Z,14.07
2019-02-18T01:29:19.522Z,16.03
2019-02-18T01:31:47.014Z,13.07
2019-02-18T01:34:15.092Z,12.83
2019-02-18T01:36:42.977Z,12.13
2019-02-18T01:39:10.585Z,12.87
2019-02-18T01:41:38.159Z,11.57
2019-02-18T01:44:06.022Z,11.37
2019-02-18T01:46:33.530Z,12.87
2019-02-18T01:49:01.034Z,12.23
2019-02-18T01:51:29.165Z,11.63
2019-02-18T01:53:56.740Z,13.43
2019-02-18T01:56:24.353Z,10.60
2019-02-18T01:58:52.176Z,11.60
2019-02-18T02:01:20.319Z,16.43
2019-02-18T02:03:48.123Z,13.20
2019-02-18T02:06:15.966Z,11.73
2019-02-18T02:08:43.899Z,12.33
2019-02-18T02:11:11.396Z,12.20
2019-02-18T02:13:39.282Z,12.47
2019-02-18T02:16:10.858Z,10.70
2019-02-18T02:18:38.458Z,11.50
2019-02-18T02:21:06.610Z,11.60
2019-02-18T02:23:34.406Z,13.13
2019-02-18T02:26:02.478Z,11.67
2019-02-18T02:28:29.992Z,9.50
2019-02-18T02:30:57.538Z,10.90
2019-02-18T02:33:25.426Z,11.27
2019-02-18T02:35:53.659Z,13.50
2019-02-18T02:38:21.367Z,11.90
2019-02-18T02:40:49.262Z,10.63
2019-02-18T02:43:16.885Z,11.80
2019-02-18T02:45:44.729Z,10.13
2019-02-18T02:48:12.636Z,12.23
2019-02-18T02:50:40.871Z,12.53
2019-02-18T02:53:08.934Z,12.30
2019-02-18T02:55:36.449Z,10.10
2019-02-18T02:58:04.082Z,14.67
2019-02-18T03:00:31.675Z,11.10
2019-02-18T03:02:59.662Z,11.93
2019-02-18T03:05:27.831Z,12.10
2019-02-18T03:07:55.719Z,13.07
2019-02-18T03:10:23.584Z,12.33
2019-02-18T03:12:51.420Z,12.50
2019-02-18T03:15:19.212Z,13.20
2019-02-18T03:17:47.128Z,10.03
2019-02-18T03:20:14.940Z,10.00
2019-02-18T03:22:43.130Z,13.33
2019-02-18T03:25:16.395Z,12.13
2019-02-18T03:27:44.108Z,12.40
2019-02-18T03:30:47.355Z,15.73
2019-02-18T03:33:17.979Z,12.30
2019-02-18T03:35:45.766Z,13.20
2019-02-18T03:38:13.309Z,14.00
2019-02-18T03:40:41.090Z,11.00
2019-02-18T03:43:08.542Z,11.33
2019-02-18T03:45:36.425Z,11.93
2019-02-18T03:48:04.454Z,15.40
2019-02-18T03:50:32.357Z,13.10
2019-02-18T03:52:59.976Z,11.20
2019-02-18T03:55:27.806Z,12.40
2019-02-18T03:57:55.655Z,11.40
2019-02-18T04:00:23.244Z,10.50
2019-02-18T04:02:50.850Z,12.00
2019-02-18T04:05:19.016Z,14.33
2019-02-18T04:07:46.490Z,12.90
2019-02-18T04:10:14.184Z,10.90
2019-02-18T04:12:41.967Z,11.53
2019-02-18T04:15:09.827Z,12.13
2019-02-18T04:17:37.474Z,14.03
2019-02-18T04:20:05.183Z,13.27
2019-02-18T04:22:33.319Z,14.20
2019-02-18T04:25:00.766Z,10.33
2019-02-18T04:27:28.287Z,13.27
2019-02-18T04:29:55.826Z,11.77
2019-02-18T04:32:23.992Z,12.90
2019-02-18T04:34:51.559Z,11.00
2019-02-18T04:37:19.482Z,10.77
2019-02-18T04:39:46.959Z,10.80
2019-02-18T04:42:14.682Z,10.80
2019-02-18T04:44:42.458Z,9.83
2019-02-18T04:47:10.062Z,11.30
2019-02-18T04:49:37.618Z,10.30
2019-02-18T04:52:05.148Z,15.10
2019-02-18T04:54:32.650Z,10.77
2019-02-18T04:57:00.423Z,10.80
2019-02-18T04:59:28.540Z,10.40
2019-02-18T05:01:56.150Z,10.67
2019-02-18T05:04:23.591Z,10.17
2019-02-18T05:06:52.024Z,12.73
2019-02-18T05:09:19.846Z,10.60
2019-02-18T05:11:47.670Z,11.03
2019-02-18T05:14:15.382Z,11.33
2019-02-18T05:16:42.862Z,10.30
2019-02-18T05:19:10.693Z,10.37
2019-02-18T05:21:38.614Z,11.37
2019-02-18T05:24:06.684Z,12.20
2019-02-18T05:26:34.500Z,10.07
2019-02-18T05:29:02.922Z,15.70
2019-02-18T05:31:30.459Z,10.73
2019-02-18T05:33:58.234Z,10.73
2019-02-18T05:36:25.822Z,10.03
2019-02-18T05:38:53.321Z,13.93
2019-02-18T05:41:21.513Z,10.47
2019-02-18T05:43:49.419Z,12.00
2019-02-18T05:46:16.979Z,11.07
2019-02-18T05:48:44.521Z,11.87
2019-02-18T05:51:12.032Z,15.50
2019-02-18T05:53:40.319Z,14.40
2019-02-18T05:56:08.397Z,11.13
2019-02-18T05:58:36.750Z,13.50
2019-02-18T06:01:05.471Z,11.30
2019-02-18T06:03:33.041Z,13.60
2019-02-18T06:06:01.206Z,14.10
2019-02-18T06:08:28.964Z,14.20
2019-02-18T06:10:56.836Z,11.43
2019-02-18T06:13:24.798Z,13.00
2019-02-18T06:15:52.595Z,11.87
2019-02-18T06:18:20.230Z,18.57
2019-02-18T06:20:47.999Z,12.77
2019-02-18T06:23:15.879Z,12.60
2019-02-18T06:25:46.834Z,11.90
2019-02-18T06:28:14.703Z,10.23
2019-02-18T06:30:42.452Z,10.60
2019-02-18T06:33:10.372Z,11.00
2019-02-18T06:35:37.839Z,11.63
2019-02-18T06:38:05.519Z,13.50
2019-02-18T06:40:33.079Z,11.10
2019-02-18T06:43:00.893Z,11.50
2019-02-18T06:46:06.563Z,10.80
2019-02-18T06:48:36.428Z,12.60
2019-02-18T06:51:03.990Z,15.67
2019-02-18T06:53:31.487Z,12.10
2019-02-18T06:55:59.578Z,10.07
2019-02-18T06:58:40.483Z,10.60
2019-02-18T07:01:36.558Z,11.37
2019-02-18T07:04:20.834Z,11.23
2019-02-18T07:07:10.812Z,9.93
2019-02-18T07:09:51.446Z,9.53
2019-02-18T07:12:23.234Z,10.73
2019-02-18T07:14:51.090Z,10.03
2019-02-18T07:17:18.945Z,11.40
2019-02-18T07:19:46.466Z,14.50
2019-02-18T07:22:14.887Z,17.43
2019-02-18T07:24:42.721Z,9.33
2019-02-18T07:27:10.556Z,11.63
2019-02-18T07:29:39.071Z,16.53
2019-02-18T07:32:06.799Z,10.03
2019-02-18T07:34:34.371Z,11.33
2019-02-18T07:37:01.832Z,9.27
2019-02-18T07:39:29.708Z,11.13
2019-02-18T07:41:57.602Z,12.30
2019-02-18T07:44:25.150Z,10.67
2019-02-18T07:46:52.782Z,11.60
2019-02-18T07:49:20.708Z,12.33
2019-02-18T07:51:48.550Z,13.13
2019-02-18T07:54:16.658Z,11.73
2019-02-18T07:56:44.259Z,11.70
2019-02-18T07:59:12.137Z,11.83
2019-02-18T08:01:39.950Z,10.20
2019-02-18T08:04:07.498Z,10.03
2019-02-18T08:06:35.381Z,9.97
2019-02-18T08:09:04.754Z,10.07
2019-02-18T08:11:32.954Z,12.77
2019-02-18T08:14:00.786Z,14.13
2019-02-18T08:16:28.422Z,12.37
2019-02-18T08:18:56.159Z,11.90
2019-02-18T08:21:23.986Z,12.80
2019-02-18T08:23:59.576Z,10.27
2019-02-18T08:26:21.204Z,11.07
2019-02-18T08:28:48.809Z,9.77
2019-02-18T08:31:16.994Z,10.40
2019-02-18T08:33:44.783Z,9.23
2019-02-18T08:36:12.358Z,11.60
2019-02-18T08:38:40.626Z,10.70
2019-02-18T08:41:08.432Z,12.70
2019-02-18T08:43:36.590Z,12.10
2019-02-18T08:46:04.859Z,11.10
2019-02-18T08:48:32.289Z,11.73
2019-02-18T08:50:59.930Z,11.67
2019-02-18T08:53:27.658Z,11.37
2019-02-18T08:55:55.126Z,11.67
2019-02-18T08:58:22.602Z,10.77
2019-02-18T09:00:50.107Z,14.00
2019-02-18T09:03:18.635Z,10.90
2019-02-18T09:05:46.496Z,11.33
2019-02-18T09:08:14.142Z,11.63
2019-02-18T09:10:42.014Z,10.27
2019-02-18T09:13:09.535Z,9.57
2019-02-18T09:15:38.062Z,9.70
2019-02-18T09:18:07.195Z,12.10
2019-02-18T09:20:34.961Z,12.77
2019-02-18T09:23:16.382Z,10.77
2019-02-18T09:25:52.276Z,10.00
2019-02-18T09:28:20.434Z,10.17
2019-02-18T09:30:50.642Z,9.80
2019-02-18T09:33:18.156Z,10.80
2019-02-18T09:35:45.726Z,9.30
2019-02-18T09:38:23.821Z,10.10
2019-02-18T09:40:46.146Z,10.30
2019-02-18T09:43:12.040Z,8.13
2019-02-18T09:45:39.548Z,9.73
2019-02-18T09:48:07.086Z,10.07
2019-02-18T09:50:34.951Z,11.40
2019-02-18T09:53:02.630Z,11.00
2019-02-18T09:55:30.257Z,7.77
2019-02-18T09:57:58.049Z,12.17
2019-02-18T10:00:25.670Z,10.33
2019-02-18T10:02:53.815Z,8.10
2019-02-18T10:05:21.770Z,8.77
2019-02-18T10:07:49.314Z,8.43
2019-02-18T10:10:16.928Z,7.73
2019-02-18T10:12:44.554Z,7.50
2019-02-18T10:15:12.914Z,8.30
2019-02-18T10:17:41.295Z,6.53
2019-02-18T10:20:10.087Z,7.07
2019-02-18T10:22:37.687Z,8.20
2019-02-18T10:25:07.357Z,8.70
2019-02-18T10:27:36.046Z,8.50
2019-02-18T10:30:03.993Z,7.23
2019-02-18T10:32:31.753Z,6.90
2019-02-18T10:34:59.574Z,7.83
2019-02-18T10:37:27.778Z,7.83
2019-02-18T10:39:55.642Z,7.60
2019-02-18T10:42:23.150Z,7.20
2019-02-18T10:44:51.408Z,8.03
2019-02-18T10:47:19.039Z,7.37
2019-02-18T10:49:46.941Z,8.53
2019-02-18T10:52:15.482Z,6.87
2019-02-18T10:54:43.065Z,8.00
2019-02-18T10:57:10.682Z,7.60
2019-02-18T10:59:38.266Z,7.33
2019-02-18T11:02:05.923Z,7.07
2019-02-18T11:04:33.830Z,8.00
2019-02-18T11:07:01.758Z,7.43
2019-02-18T11:09:30.763Z,7.10
2019-02-18T11:11:58.603Z,7.30
2019-02-18T11:14:26.202Z,8.10
2019-02-18T11:16:54.048Z,8.23
2019-02-18T11:19:21.663Z,7.30
2019-02-18T11:21:49.254Z,9.93
2019-02-18T11:24:17.247Z,8.23
2019-02-18T11:26:45.120Z,8.20
2019-02-18T11:29:12.927Z,7.40
2019-02-18T11:31:40.478Z,8.10
2019-02-18T11:34:08.338Z,7.70
2019-02-18T11:36:35.926Z,8.47
2019-02-18T11:39:09.781Z,8.97
2019-02-18T11:41:37.387Z,8.20
2019-02-18T11:44:05.333Z,8.60
2019-02-18T11:46:32.956Z,8.23
2019-02-18T11:49:01.109Z,8.60
2019-02-18T11:51:28.727Z,7.50
2019-02-18T11:53:56.899Z,12.90
2019-02-18T11:56:24.802Z,8.57
2019-02-18T11:58:53.338Z,8.40
2019-02-18T12:01:21.547Z,9.67
2019-02-18T12:03:49.147Z,18.87
2019-02-18T12:06:16.748Z,8.30
2019-02-18T12:08:44.578Z,8.73
2019-02-18T12:11:12.226Z,8.00
2019-02-18T12:13:39.777Z,9.47
2019-02-18T12:16:08.000Z,8.90
2019-02-18T12:18:35.890Z,7.47
2019-02-18T12:21:03.766Z,7.23
2019-02-18T12:23:31.317Z,8.83
2019-02-18T12:25:59.781Z,8.87
2019-02-18T12:28:27.675Z,8.80
2019-02-18T12:30:55.321Z,11.73
2019-02-18T12:33:23.185Z,9.70
2019-02-18T12:35:51.086Z,9.33
2019-02-18T12:38:18.991Z,8.47
2019-02-18T12:40:46.874Z,7.87
2019-02-18T12:43:14.798Z,8.13
2019-02-18T12:45:42.381Z,8.60
2019-02-18T12:48:10.116Z,8.23
2019-02-18T12:50:38.554Z,8.50
2019-02-18T12:53:06.187Z,7.00
2019-02-18T12:55:34.235Z,7.70
2019-02-18T12:58:02.271Z,8.13
2019-02-18T13:00:30.249Z,7.33
2019-02-18T13:02:58.406Z,9.87
2019-02-18T13:05:26.908Z,8.37
2019-02-18T13:07:55.082Z,7.77
2019-02-18T13:10:22.922Z,8.73
2019-02-18T13:12:52.439Z,8.57
2019-02-18T13:15:20.227Z,8.13
2019-02-18T13:17:47.902Z,9.07
2019-02-18T13:20:15.857Z,6.77
2019-02-18T13:22:44.026Z,6.20
2019-02-18T13:25:12.196Z,7.93
2019-02-18T13:27:40.101Z,8.13
2019-02-18T13:30:12.206Z,7.17
2019-02-18T13:32:40.397Z,7.50
2019-02-18T13:35:08.312Z,7.23
2019-02-18T13:37:36.239Z,7.20
2019-02-18T13:40:04.633Z,6.43
2019-02-18T13:42:32.550Z,6.27
2019-02-18T13:45:00.673Z,9.53
2019-02-18T13:47:28.314Z,6.80
2019-02-18T13:49:55.894Z,7.17
2019-02-18T13:52:23.560Z,7.63
2019-02-18T13:54:51.158Z,6.43
2019-02-18T13:57:19.443Z,6.27
2019-02-18T13:59:47.522Z,8.63
2019-02-18T14:02:15.656Z,8.17
2019-02-18T14:04:43.190Z,10.40
2019-02-18T14:07:10.863Z,6.90
2019-02-18T14:09:38.778Z,6.17
2019-02-18T14:12:06.939Z,8.23
2019-02-18T14:14:35.151Z,6.50
2019-02-18T14:17:03.028Z,5.20
2019-02-18T14:19:30.915Z,8.50
2019-02-18T14:21:58.538Z,9.23
2019-02-18T14:24:26.103Z,5.37
2019-02-18T14:26:53.944Z,5.20
2019-02-18T14:29:21.814Z,4.07
2019-02-18T14:31:49.692Z,5.53
2019-02-18T14:34:18.162Z,4.93
2019-02-18T14:36:45.727Z,4.50
2019-02-18T14:39:21.354Z,4.30
2019-02-18T14:41:49.208Z,5.00
2019-02-18T14:44:16.810Z,4.30
2019-02-18T14:46:44.940Z,6.23
2019-02-18T14:49:12.707Z,4.33
2019-02-18T14:51:40.783Z,4.40
2019-02-18T14:54:09.367Z,4.87
2019-02-18T14:56:37.202Z,5.07
2019-02-18T14:59:05.302Z,6.23
2019-02-18T15:01:33.406Z,5.83
2019-02-18T15:04:01.022Z,5.07
2019-02-18T15:06:28.658Z,9.60
2019-02-18T15:08:56.662Z,5.53
2019-02-18T15:11:24.918Z,8.20
2019-02-18T15:13:53.168Z,4.80
2019-02-18T15:16:21.390Z,4.37
2019-02-18T15:18:48.959Z,4.57
2019-02-18T15:21:17.686Z,5.57
2019-02-18T15:23:45.563Z,6.57
2019-02-18T15:26:13.341Z,5.93
2019-02-18T15:28:41.142Z,6.63
2019-02-18T15:31:08.895Z,6.50
2019-02-18T15:33:36.595Z,6.77
2019-02-18T15:36:04.152Z,8.60
2019-02-18T15:38:32.763Z,5.90
2019-02-18T15:41:00.533Z,5.70
2019-02-18T15:43:29.343Z,6.50
2019-02-18T15:45:57.530Z,7.50
2019-02-18T15:48:25.434Z,7.70
2019-02-18T15:50:53.349Z,6.77
2019-02-18T15:53:30.245Z,5.93
2019-02-18T15:55:58.494Z,8.27
2019-02-18T15:58:44.165Z,5.80
2019-02-18T16:01:12.197Z,8.70
2019-02-18T16:03:40.063Z,7.20
2019-02-18T16:06:08.368Z,6.93
2019-02-18T16:08:35.942Z,7.10
2019-02-18T16:11:04.083Z,9.17
2019-02-18T16:13:31.688Z,7.03
2019-02-18T16:15:59.284Z,8.83
2019-02-18T16:18:27.107Z,10.07
2019-02-18T16:20:54.698Z,7.63
2019-02-18T16:23:22.604Z,7.27
2019-02-18T16:25:50.271Z,7.63
2019-02-18T16:28:18.127Z,7.80
2019-02-18T16:30:46.273Z,8.67
2019-02-18T16:33:14.207Z,9.23
2019-02-18T16:35:42.414Z,8.53
2019-02-18T16:38:10.622Z,11.20
2019-02-18T16:40:41.278Z,10.50
2019-02-18T16:43:29.415Z,14.07
2019-02-18T16:46:23.985Z,11.43
2019-02-18T16:49:17.663Z,8.90
2019-02-18T16:52:03.608Z,9.47
2019-02-18T16:54:39.298Z,8.43
2019-02-18T16:57:15.207Z,12.47
2019-02-18T16:59:43.072Z,11.80
2019-02-18T17:02:11.634Z,13.00
2019-02-18T17:04:39.271Z,14.10
2019-02-18T17:07:07.733Z,12.87
2019-02-18T17:09:35.319Z,12.70
2019-02-18T17:12:03.231Z,11.57
2019-02-18T17:14:30.792Z,16.83
2019-02-18T17:16:58.424Z,12.03
2019-02-18T17:19:26.231Z,10.63
2019-02-18T17:21:53.926Z,8.17
2019-02-18T17:24:22.037Z,7.83
2019-02-18T17:26:49.998Z,9.43
2019-02-18T17:29:17.762Z,11.83
2019-02-18T17:31:45.741Z,7.77
2019-02-18T17:34:13.600Z,7.23
2019-02-18T17:36:41.197Z,8.67
2019-02-18T17:39:08.791Z,7.23
2019-02-18T17:41:36.496Z,9.90
2019-02-18T17:44:04.697Z,10.90
2019-02-18T17:46:32.666Z,12.80
2019-02-18T17:49:00.881Z,12.13
2019-02-18T17:51:28.466Z,8.93
2019-02-18T17:53:56.127Z,10.63
2019-02-18T17:56:23.810Z,14.13
2019-02-18T17:58:51.799Z,12.57
2019-02-18T18:01:19.366Z,20.43
2019-02-18T18:03:46.958Z,18.57
2019-02-18T18:06:17.587Z,13.20
2019-02-18T18:08:45.298Z,10.87
2019-02-18T18:11:12.761Z,12.50
2019-02-18T18:13:40.594Z,11.27
2019-02-18T18:16:08.139Z,10.93
2019-02-18T18:18:35.996Z,9.33
2019-02-18T18:21:04.142Z,11.03
2019-02-18T18:23:31.892Z,13.43
2019-02-18T18:25:59.667Z,10.17
2019-02-18T18:28:28.011Z,10.90
2019-02-18T18:30:56.296Z,12.10
2019-02-18T18:33:24.241Z,12.93
2019-02-18T18:35:52.136Z,15.27
2019-02-18T18:38:20.063Z,19.97
2019-02-18T18:40:47.684Z,14.40
2019-02-18T18:43:15.436Z,12.93
2019-02-18T18:45:43.054Z,12.53
2019-02-18T18:48:11.406Z,10.90
2019-02-18T18:50:38.995Z,11.83
2019-02-18T18:53:06.637Z,10.23
2019-02-18T18:55:34.183Z,9.23
2019-02-18T18:58:02.074Z,10.80
2019-02-18T19:00:29.982Z,30.17
2019-02-18T19:02:57.602Z,14.27
2019-02-18T19:05:25.518Z,11.90
2019-02-18T19:07:53.156Z,10.47
2019-02-18T19:10:21.938Z,16.67
2019-02-18T19:12:49.802Z,10.97
2019-02-18T19:15:17.736Z,11.37
2019-02-18T19:17:45.635Z,15.13
2019-02-18T19:20:13.438Z,12.97
2019-02-18T19:22:41.404Z,10.50
2019-02-18T19:25:09.395Z,10.50
2019-02-18T19:27:36.947Z,11.30
2019-02-18T19:30:05.771Z,13.70
2019-02-18T19:32:33.241Z,13.43
2019-02-18T19:35:02.122Z,14.80
2019-02-18T19:37:29.722Z,12.90
2019-02-18T19:39:57.214Z,17.13
2019-02-18T19:42:25.092Z,15.70
2019-02-18T19:44:52.711Z,13.17
2019-02-18T19:47:20.338Z,13.40
2019-02-18T19:49:48.031Z,11.60
2019-02-18T19:52:16.160Z,16.20
2019-02-18T19:54:44.075Z,11.47
2019-02-18T19:57:13.443Z,12.40
2019-02-18T19:59:41.417Z,11.60
2019-02-18T20:02:10.150Z,11.13
2019-02-18T20:04:37.783Z,12.83
2019-02-18T20:07:05.699Z,13.87
2019-02-18T20:09:33.331Z,9.77
2019-02-18T20:12:01.170Z,13.93
2019-02-18T20:14:28.787Z,12.40
2019-02-18T20:16:57.049Z,13.47
2019-02-18T20:19:24.972Z,19.37
2019-02-18T20:21:52.836Z,9.47
2019-02-18T20:24:20.726Z,8.87
2019-02-18T20:26:48.627Z,9.10
2019-02-18T20:29:16.430Z,10.90
2019-02-18T20:31:44.000Z,11.00
2019-02-18T20:34:11.912Z,11.10
2019-02-18T20:36:39.471Z,8.17
2019-02-18T20:39:07.738Z,13.40
2019-02-18T20:41:35.630Z,10.47
2019-02-18T20:44:07.528Z,8.90
2019-02-18T20:46:32.926Z,11.70
2019-02-18T20:49:00.895Z,10.53
2019-02-18T20:51:28.845Z,10.57
2019-02-18T20:53:56.766Z,12.83
2019-02-18T20:56:24.611Z,11.73
2019-02-18T20:58:52.094Z,11.93
2019-02-18T21:01:19.722Z,12.77
2019-02-18T21:03:47.579Z,11.40
2019-02-18T21:06:15.180Z,13.20
2019-02-18T21:08:42.779Z,10.03
2019-02-18T21:11:10.407Z,11.00
2019-02-18T21:13:38.188Z,12.20
2019-02-18T21:16:05.817Z,13.13
2019-02-18T21:18:33.717Z,12.20
2019-02-18T21:21:01.923Z,11.60
2019-02-18T21:23:29.526Z,11.70
2019-02-18T21:25:57.417Z,11.17
2019-02-18T21:28:25.022Z,10.00
2019-02-18T21:30:53.003Z,16.43
2019-02-18T21:33:21.166Z,12.77
2019-02-18T21:35:49.138Z,11.57
2019-02-18T21:38:16.652Z,12.23
2019-02-18T21:40:44.857Z,11.10
2019-02-18T21:43:14.623Z,10.63
2019-02-18T21:45:43.463Z,12.23
2019-02-18T21:48:11.039Z,13.17
2019-02-18T21:50:38.675Z,12.63
2019-02-18T21:53:06.510Z,14.40
2019-02-18T21:55:34.790Z,13.33
2019-02-18T21:58:02.619Z,15.07
2019-02-18T22:00:30.678Z,13.50
2019-02-18T22:02:58.545Z,14.83
2019-02-18T22:05:26.798Z,16.57
2019-02-18T22:07:54.949Z,19.10
2019-02-18T22:10:23.411Z,20.83
2019-02-18T22:12:50.969Z,15.63
2019-02-18T22:15:18.541Z,12.30
2019-02-18T22:17:46.666Z,16.60
2019-02-18T22:20:14.538Z,13.33
2019-02-18T22:22:42.146Z,14.33
2019-02-18T22:25:09.994Z,14.63
2019-02-18T22:27:37.613Z,13.43
2019-02-18T22:30:06.704Z,11.37
2019-02-18T22:32:34.382Z,13.07
2019-02-18T22:35:02.174Z,13.70
2019-02-18T22:37:30.069Z,13.07
2019-02-18T22:39:57.995Z,12.73
2019-02-18T22:42:25.689Z,12.30
2019-02-18T22:44:53.899Z,14.53
2019-02-18T22:47:22.529Z,14.00
2019-02-18T22:49:50.079Z,14.43
2019-02-18T22:52:17.677Z,14.80
2019-02-18T22:54:45.565Z,15.50
2019-02-18T22:57:13.374Z,15.33
2019-02-18T22:59:46.147Z,12.30
2019-02-18T23:02:14.972Z,13.23
2019-02-18T23:04:42.678Z,15.93
2019-02-18T23:07:10.575Z,13.67
2019-02-18T23:09:38.173Z,17.80
2019-02-18T23:12:06.238Z,15.30
2019-02-18T23:14:33.719Z,14.20
2019-02-18T23:17:01.669Z,17.07
2019-02-18T23:19:29.256Z,13.10
2019-02-18T23:21:56.866Z,15.27
2019-02-18T23:24:24.436Z,12.00
2019-02-18T23:26:52.002Z,13.37
2019-02-18T23:29:19.579Z,11.13
2019-02-18T23:31:47.714Z,11.73
2019-02-18T23:34:15.245Z,12.93
2019-02-18T23:36:43.474Z,13.30
2019-02-18T23:39:11.538Z,15.80
2019-02-18T23:41:39.666Z,14.07
2019-02-18T23:44:07.224Z,13.30
2019-02-18T23:46:35.372Z,12.00
2019-02-18T23:49:02.982Z,17.37
2019-02-18T23:51:30.721Z,14.17
2019-02-18T23:53:58.184Z,13.80
2019-02-18T23:56:26.054Z,13.10
2019-02-18T23:58:53.884Z,11.90
